sensor_id;sensor_type;location;lat;lon;timestamp;temperature;humidity
55151;DHT22;41041;43.162;20.538;2022-12-05T00:03:41;179.60;2252.80
55151;DHT22;41041;43.162;20.538;2022-12-05T00:06:07;179.60;2252.80
55151;DHT22;41041;43.162;20.538;2022-12-05T00:08:33;179.70;2252.80
55151;DHT22;41041;43.162;20.538;2022-12-05T00:10:59;179.70;2252.80
55151;DHT22;41041;43.162;20.538;2022-12-05T00:13:24;179.80;2252.80
55151;DHT22;41041;43.162;20.538;2022-12-05T00:18:16;180.10;2252.80
55151;DHT22;41041;43.162;20.538;2022-12-05T00:20:46;179.90;2252.80
55151;DHT22;41041;43.162;20.538;2022-12-05T00:23:12;179.80;2252.80
55151;DHT22;41041;43.162;20.538;2022-12-05T00:25:38;179.80;2252.80
55151;DHT22;41041;43.162;20.538;2022-12-05T00:28:03;179.90;2252.80
55151;DHT22;41041;43.162;20.538;2022-12-05T00:30:30;179.80;2252.80
55151;DHT22;41041;43.162;20.538;2022-12-05T00:32:56;179.80;2252.80
55151;DHT22;41041;43.162;20.538;2022-12-05T00:35:22;179.80;2252.80
55151;DHT22;41041;43.162;20.538;2022-12-05T00:37:47;179.90;2252.80
55151;DHT22;41041;43.162;20.538;2022-12-05T00:40:13;180.00;2252.80
55151;DHT22;41041;43.162;20.538;2022-12-05T00:42:39;180.10;2252.80
55151;DHT22;41041;43.162;20.538;2022-12-05T00:45:05;180.10;2252.80
55151;DHT22;41041;43.162;20.538;2022-12-05T00:47:36;204.90;2252.80
55151;DHT22;41041;43.162;20.538;2022-12-05T00:50:03;204.80;2252.80
55151;DHT22;41041;43.162;20.538;2022-12-05T00:52:29;180.10;2252.80
55151;DHT22;41041;43.162;20.538;2022-12-05T00:55:00;180.10;2252.80
55151;DHT22;41041;43.162;20.538;2022-12-05T00:57:26;180.10;2252.80
55151;DHT22;41041;43.162;20.538;2022-12-05T00:59:51;180.10;2252.80
55151;DHT22;41041;43.162;20.538;2022-12-05T01:02:17;204.80;2252.80
55151;DHT22;41041;43.162;20.538;2022-12-05T01:04:43;204.80;2252.80
55151;DHT22;41041;43.162;20.538;2022-12-05T01:07:09;204.90;2252.80
55151;DHT22;41041;43.162;20.538;2022-12-05T01:09:39;205.10;2252.80
55151;DHT22;41041;43.162;20.538;2022-12-05T01:12:04;205.00;2252.80
55151;DHT22;41041;43.162;20.538;2022-12-05T01:14:30;204.90;2252.80
55151;DHT22;41041;43.162;20.538;2022-12-05T01:16:58;204.90;2252.80
55151;DHT22;41041;43.162;20.538;2022-12-05T01:19:26;204.90;2252.80
55151;DHT22;41041;43.162;20.538;2022-12-05T01:21:52;204.90;2252.80
55151;DHT22;41041;43.162;20.538;2022-12-05T01:24:19;204.80;2252.80
55151;DHT22;41041;43.162;20.538;2022-12-05T01:26:48;204.80;2252.80
55151;DHT22;41041;43.162;20.538;2022-12-05T01:29:15;204.80;2252.80
55151;DHT22;41041;43.162;20.538;2022-12-05T01:31:41;204.90;2252.80
55151;DHT22;41041;43.162;20.538;2022-12-05T01:34:11;204.80;2252.80
55151;DHT22;41041;43.162;20.538;2022-12-05T01:36:37;204.80;2252.80
55151;DHT22;41041;43.162;20.538;2022-12-05T01:39:04;204.80;2252.80
55151;DHT22;41041;43.162;20.538;2022-12-05T01:41:34;204.80;2252.80
55151;DHT22;41041;43.162;20.538;2022-12-05T01:44:07;180.10;2252.80
55151;DHT22;41041;43.162;20.538;2022-12-05T01:46:57;180.10;2252.80
55151;DHT22;41041;43.162;20.538;2022-12-05T01:49:30;180.10;2252.80
55151;DHT22;41041;43.162;20.538;2022-12-05T01:52:05;180.10;2252.80
55151;DHT22;41041;43.162;20.538;2022-12-05T01:54:31;180.10;2252.80
55151;DHT22;41041;43.162;20.538;2022-12-05T01:57:08;204.80;2252.80
55151;DHT22;41041;43.162;20.538;2022-12-05T01:59:40;204.90;2252.80
55151;DHT22;41041;43.162;20.538;2022-12-05T02:02:06;204.90;2252.80
55151;DHT22;41041;43.162;20.538;2022-12-05T02:04:47;204.90;2252.80
55151;DHT22;41041;43.162;20.538;2022-12-05T02:07:14;204.90;2252.80
55151;DHT22;41041;43.162;20.538;2022-12-05T02:09:39;204.90;2252.80
55151;DHT22;41041;43.162;20.538;2022-12-05T02:12:05;204.90;2252.80
55151;DHT22;41041;43.162;20.538;2022-12-05T02:31:08;205.00;2252.80
55151;DHT22;41041;43.162;20.538;2022-12-05T02:36:15;205.00;2252.80
55151;DHT22;41041;43.162;20.538;2022-12-05T02:39:02;205.10;2252.80
55151;DHT22;41041;43.162;20.538;2022-12-05T02:41:36;205.00;2252.80
55151;DHT22;41041;43.162;20.538;2022-12-05T02:44:19;205.00;2252.80
55151;DHT22;41041;43.162;20.538;2022-12-05T02:46:47;205.00;2252.80
55151;DHT22;41041;43.162;20.538;2022-12-05T02:49:27;205.00;2252.80
55151;DHT22;41041;43.162;20.538;2022-12-05T02:51:58;205.10;2252.80
55151;DHT22;41041;43.162;20.538;2022-12-05T02:54:34;205.10;2252.80
55151;DHT22;41041;43.162;20.538;2022-12-05T02:57:08;205.50;2252.80
55151;DHT22;41041;43.162;20.538;2022-12-05T02:59:34;205.40;2252.80
55151;DHT22;41041;43.162;20.538;2022-12-05T03:12:21;205.50;2252.80
55151;DHT22;41041;43.162;20.538;2022-12-05T03:15:38;205.40;2252.80
55151;DHT22;41041;43.162;20.538;2022-12-05T03:17:47;205.10;2252.80
55151;DHT22;41041;43.162;20.538;2022-12-05T03:20:43;205.10;2252.80
55151;DHT22;41041;43.162;20.538;2022-12-05T03:23:22;205.10;2252.80
55151;DHT22;41041;43.162;20.538;2022-12-05T03:29:09;205.10;2252.80
55151;DHT22;41041;43.162;20.538;2022-12-05T03:32:14;205.20;2252.80
55151;DHT22;41041;43.162;20.538;2022-12-05T03:34:47;205.10;2252.80
55151;DHT22;41041;43.162;20.538;2022-12-05T03:37:24;205.10;2252.80
55151;DHT22;41041;43.162;20.538;2022-12-05T03:40:03;205.10;2252.80
55151;DHT22;41041;43.162;20.538;2022-12-05T03:42:34;205.20;2252.80
55151;DHT22;41041;43.162;20.538;2022-12-05T03:45:11;205.20;2252.80
55151;DHT22;41041;43.162;20.538;2022-12-05T03:50:09;205.20;2252.80
55151;DHT22;41041;43.162;20.538;2022-12-05T09:45:11;282.00;2278.40
55151;DHT22;41041;43.162;20.538;2022-12-05T09:50:26;282.00;2278.40
55151;DHT22;41041;43.162;20.538;2022-12-05T19:35:22;281.60;2278.40
55151;DHT22;41041;43.162;20.538;2022-12-05T19:37:56;256.80;2252.80
55151;DHT22;41041;43.162;20.538;2022-12-05T19:40:25;256.50;2252.80
55151;DHT22;41041;43.162;20.538;2022-12-05T19:42:51;256.60;2252.80
55151;DHT22;41041;43.162;20.538;2022-12-05T19:45:16;256.50;2252.80
55151;DHT22;41041;43.162;20.538;2022-12-05T19:47:42;256.50;2252.80
55151;DHT22;41041;43.162;20.538;2022-12-05T19:50:08;256.50;2252.80
55151;DHT22;41041;43.162;20.538;2022-12-05T19:52:39;256.60;2252.80
55151;DHT22;41041;43.162;20.538;2022-12-05T19:55:05;256.70;2252.80
55151;DHT22;41041;43.162;20.538;2022-12-05T19:57:34;256.70;2252.80
55151;DHT22;41041;43.162;20.538;2022-12-05T20:00:00;256.70;2252.80
55151;DHT22;41041;43.162;20.538;2022-12-05T20:02:26;256.60;2252.80
55151;DHT22;41041;43.162;20.538;2022-12-05T20:04:55;256.60;2252.80
55151;DHT22;41041;43.162;20.538;2022-12-05T20:07:23;256.60;2252.80
55151;DHT22;41041;43.162;20.538;2022-12-05T20:09:52;256.60;2252.80
55151;DHT22;41041;43.162;20.538;2022-12-05T20:12:26;256.60;2252.80
55151;DHT22;41041;43.162;20.538;2022-12-05T20:14:52;256.60;2252.80
55151;DHT22;41041;43.162;20.538;2022-12-05T20:17:25;256.60;2252.80
55151;DHT22;41041;43.162;20.538;2022-12-05T20:20:02;256.60;2252.80
55151;DHT22;41041;43.162;20.538;2022-12-05T20:22:28;256.60;2252.80
55151;DHT22;41041;43.162;20.538;2022-12-05T20:24:56;256.60;2252.80
55151;DHT22;41041;43.162;20.538;2022-12-05T20:27:36;256.50;2252.80
55151;DHT22;41041;43.162;20.538;2022-12-05T20:33:19;256.50;2252.80
55151;DHT22;41041;43.162;20.538;2022-12-05T20:36:11;256.60;2252.80
55151;DHT22;41041;43.162;20.538;2022-12-05T20:38:37;256.50;2252.80
55151;DHT22;41041;43.162;20.538;2022-12-05T20:41:12;256.50;2252.80
55151;DHT22;41041;43.162;20.538;2022-12-05T20:43:42;256.50;2252.80
55151;DHT22;41041;43.162;20.538;2022-12-05T20:46:36;256.50;2252.80
55151;DHT22;41041;43.162;20.538;2022-12-05T20:49:05;256.50;2252.80
55151;DHT22;41041;43.162;20.538;2022-12-05T20:51:32;256.50;2252.80
55151;DHT22;41041;43.162;20.538;2022-12-05T20:54:00;256.50;2252.80
55151;DHT22;41041;43.162;20.538;2022-12-05T20:56:27;256.40;2252.80
55151;DHT22;41041;43.162;20.538;2022-12-05T20:59:01;256.40;2252.80
55151;DHT22;41041;43.162;20.538;2022-12-05T21:01:28;256.50;2252.80
55151;DHT22;41041;43.162;20.538;2022-12-05T21:03:57;256.50;2252.80
55151;DHT22;41041;43.162;20.538;2022-12-05T21:06:32;256.50;2252.80
55151;DHT22;41041;43.162;20.538;2022-12-05T21:09:06;256.40;2252.80
55151;DHT22;41041;43.162;20.538;2022-12-05T21:11:42;256.40;2252.80
55151;DHT22;41041;43.162;20.538;2022-12-05T21:14:50;256.40;2252.80
55151;DHT22;41041;43.162;20.538;2022-12-05T21:17:17;256.50;2252.80
55151;DHT22;41041;43.162;20.538;2022-12-05T21:19:42;256.50;2252.80
55151;DHT22;41041;43.162;20.538;2022-12-05T21:27:06;256.80;2252.80
55151;DHT22;41041;43.162;20.538;2022-12-05T21:29:32;256.40;2252.80
55151;DHT22;41041;43.162;20.538;2022-12-05T21:41:45;256.80;2252.80
55151;DHT22;41041;43.162;20.538;2022-12-05T21:44:13;256.50;2252.80
55151;DHT22;41041;43.162;20.538;2022-12-05T21:46:39;256.40;2252.80
55151;DHT22;41041;43.162;20.538;2022-12-05T21:49:05;256.40;2252.80
55151;DHT22;41041;43.162;20.538;2022-12-05T21:51:31;256.40;2252.80
55151;DHT22;41041;43.162;20.538;2022-12-05T21:54:02;256.40;2252.80
55151;DHT22;41041;43.162;20.538;2022-12-05T21:56:33;256.50;2252.80
55151;DHT22;41041;43.162;20.538;2022-12-05T21:58:59;256.40;2252.80
55151;DHT22;41041;43.162;20.538;2022-12-05T22:01:30;256.40;2252.80
55151;DHT22;41041;43.162;20.538;2022-12-05T22:04:16;256.40;2252.80
55151;DHT22;41041;43.162;20.538;2022-12-05T22:06:42;256.40;2252.80
55151;DHT22;41041;43.162;20.538;2022-12-05T22:09:11;256.40;2252.80
55151;DHT22;41041;43.162;20.538;2022-12-05T22:11:37;256.40;2252.80
55151;DHT22;41041;43.162;20.538;2022-12-05T22:14:15;256.50;2252.80
55151;DHT22;41041;43.162;20.538;2022-12-05T22:16:56;256.40;2252.80
55151;DHT22;41041;43.162;20.538;2022-12-05T22:19:33;256.40;2252.80
55151;DHT22;41041;43.162;20.538;2022-12-05T22:22:01;256.40;2252.80
55151;DHT22;41041;43.162;20.538;2022-12-05T22:24:37;256.40;2252.80
55151;DHT22;41041;43.162;20.538;2022-12-05T22:27:05;256.30;2252.80
55151;DHT22;41041;43.162;20.538;2022-12-05T22:36:32;256.40;2252.80
55151;DHT22;41041;43.162;20.538;2022-12-05T22:38:58;256.30;2252.80
55151;DHT22;41041;43.162;20.538;2022-12-05T22:41:28;256.40;2252.80
55151;DHT22;41041;43.162;20.538;2022-12-05T22:44:02;256.40;2252.80
55151;DHT22;41041;43.162;20.538;2022-12-05T22:46:31;256.40;2252.80
55151;DHT22;41041;43.162;20.538;2022-12-05T22:49:03;256.40;2252.80
55151;DHT22;41041;43.162;20.538;2022-12-05T22:51:29;256.30;2252.80
55151;DHT22;41041;43.162;20.538;2022-12-05T23:58:38;256.30;2252.80
